createdAt,value
2018-05-29T00:04:19.770Z,16.87
2018-05-29T00:09:21.310Z,17.40
2018-05-29T00:14:22.926Z,21.73
2018-05-29T00:19:24.727Z,19.73
2018-05-29T00:24:26.439Z,18.20
2018-05-29T00:29:34.896Z,14.80
2018-05-29T00:34:38.024Z,17.90
2018-05-29T00:39:40.792Z,19.53
2018-05-29T00:44:42.888Z,16.80
2018-05-29T00:49:45.230Z,15.70
2018-05-29T00:55:05.826Z,16.33
2018-05-29T01:00:07.675Z,16.77
2018-05-29T01:05:10.186Z,16.50
2018-05-29T01:10:11.810Z,18.57
2018-05-29T01:15:13.532Z,16.80
2018-05-29T01:20:15.064Z,18.93
2018-05-29T01:25:17.391Z,19.03
2018-05-29T01:30:18.993Z,18.33
2018-05-29T01:35:20.489Z,23.17
2018-05-29T01:40:22.751Z,19.70
2018-05-29T01:45:24.536Z,18.33
2018-05-29T01:50:28.842Z,17.73
2018-05-29T01:55:30.660Z,17.80
2018-05-29T02:00:37.065Z,20.90
2018-05-29T02:05:44.415Z,22.03
2018-05-29T02:10:50.849Z,17.00
2018-05-29T02:15:55.484Z,20.57
2018-05-29T02:26:06.709Z,17.77
2018-05-29T02:31:10.091Z,20.33
2018-05-29T02:36:16.984Z,18.90
2018-05-29T02:41:18.994Z,22.43
2018-05-29T02:46:22.200Z,19.10
2018-05-29T02:51:29.470Z,19.37
2018-05-29T02:56:31.476Z,22.93
2018-05-29T03:01:33.016Z,23.10
2018-05-29T03:06:34.526Z,22.33
2018-05-29T03:11:36.273Z,20.80
2018-05-29T03:16:38.775Z,20.87
2018-05-29T03:21:40.548Z,21.60
2018-05-29T03:26:42.216Z,20.13
2018-05-29T03:31:45.265Z,21.50
2018-05-29T03:36:47.084Z,21.80
2018-05-29T03:41:51.399Z,21.67
2018-05-29T03:46:53.798Z,23.60
2018-05-29T03:52:01.277Z,21.07
2018-05-29T03:57:05.287Z,24.60
2018-05-29T04:02:07.363Z,21.60
2018-05-29T04:07:09.123Z,25.50
2018-05-29T04:12:11.439Z,21.73
2018-05-29T04:17:15.050Z,27.43
2018-05-29T04:22:16.970Z,27.83
2018-05-29T04:27:21.791Z,22.47
2018-05-29T04:32:24.740Z,26.47
2018-05-29T04:37:26.273Z,25.03
2018-05-29T04:42:28.686Z,21.43
2018-05-29T04:47:30.260Z,20.60
2018-05-29T04:52:31.783Z,22.30
2018-05-29T04:57:33.388Z,23.30
2018-05-29T05:02:35.161Z,21.57
2018-05-29T05:07:36.938Z,20.50
2018-05-29T05:12:38.708Z,20.17
2018-05-29T05:17:40.269Z,23.73
2018-05-29T05:22:42.772Z,19.40
2018-05-29T05:27:44.584Z,22.20
2018-05-29T05:32:46.159Z,21.90
2018-05-29T05:37:47.693Z,21.43
2018-05-29T05:42:49.244Z,20.87
2018-05-29T05:47:52.021Z,21.73
2018-05-29T05:52:57.424Z,23.43
2018-05-29T05:57:59.533Z,26.90
2018-05-29T06:03:01.425Z,19.23
2018-05-29T06:08:04.835Z,22.70
2018-05-29T06:13:06.708Z,19.17
2018-05-29T06:18:08.606Z,18.37
2018-05-29T06:23:29.467Z,18.07
2018-05-29T06:28:36.808Z,21.33
2018-05-29T06:33:44.284Z,20.60
2018-05-29T06:38:51.022Z,22.27
2018-05-29T06:43:55.304Z,26.90
2018-05-29T06:49:01.818Z,31.00
2018-05-29T06:54:09.498Z,31.27
2018-05-29T06:59:14.448Z,36.07
2018-05-29T07:04:19.464Z,36.87
2018-05-29T07:09:32.787Z,32.67
2018-05-29T07:14:39.752Z,30.27
2018-05-29T07:19:46.985Z,26.57
2018-05-29T07:25:02.320Z,26.60
2018-05-29T07:30:08.936Z,32.47
2018-05-29T07:35:15.297Z,28.40
2018-05-29T07:40:22.569Z,24.20
2018-05-29T07:45:28.776Z,23.60
2018-05-29T07:50:35.277Z,28.67
2018-05-29T07:55:43.555Z,23.70
2018-05-29T08:00:51.404Z,25.30
2018-05-29T08:06:00.064Z,28.07
2018-05-29T08:11:06.585Z,26.40
2018-05-29T08:16:13.713Z,22.63
2018-05-29T08:21:20.961Z,34.63
2018-05-29T08:26:29.095Z,24.80
2018-05-29T08:31:33.107Z,24.10
2018-05-29T08:36:38.012Z,25.70
2018-05-29T08:41:43.956Z,20.30
2018-05-29T08:46:52.243Z,19.13
2018-05-29T08:52:00.303Z,19.53
2018-05-29T08:57:07.533Z,22.87
2018-05-29T09:02:14.580Z,26.10
2018-05-29T09:07:20.914Z,22.93
2018-05-29T09:12:27.885Z,21.70
2018-05-29T09:17:34.362Z,19.33
2018-05-29T09:22:42.891Z,22.30
2018-05-29T09:27:49.316Z,23.10
2018-05-29T09:32:55.197Z,26.07
2018-05-29T09:38:00.585Z,21.17
2018-05-29T09:43:07.205Z,20.10
2018-05-29T09:48:13.655Z,21.63
2018-05-29T09:53:20.404Z,24.30
2018-05-29T09:58:27.944Z,24.17
2018-05-29T10:03:35.108Z,22.13
2018-05-29T10:08:42.436Z,21.00
2018-05-29T10:13:48.022Z,21.40
2018-05-29T10:18:56.279Z,27.23
2018-05-29T10:24:02.354Z,23.63
2018-05-29T10:29:08.782Z,24.40
2018-05-29T10:34:15.964Z,22.00
2018-05-29T10:39:21.991Z,21.93
2018-05-29T10:44:28.240Z,25.10
2018-05-29T13:36:53.612Z,20.00
2018-05-29T13:41:55.264Z,23.57
2018-05-29T13:46:57.978Z,28.77
2018-05-29T13:51:59.652Z,17.70
2018-05-29T13:57:01.391Z,22.57
2018-05-29T14:02:02.980Z,18.37
2018-05-29T14:07:04.720Z,17.53
2018-05-29T14:12:06.507Z,19.00
2018-05-29T14:17:08.446Z,20.23
2018-05-29T14:22:09.995Z,16.87
2018-05-29T14:27:11.716Z,19.33
2018-05-29T14:32:13.460Z,19.90
2018-05-29T14:37:16.110Z,19.73
2018-05-29T14:42:17.955Z,17.70
2018-05-29T14:47:19.733Z,15.27
2018-05-29T14:52:26.221Z,23.20
2018-05-29T14:57:28.555Z,22.77
2018-05-29T15:02:31.023Z,19.97
2018-05-29T15:07:32.904Z,20.70
2018-05-29T15:12:35.071Z,23.40
2018-05-29T15:17:38.939Z,19.23
2018-05-29T15:22:40.722Z,21.30
2018-05-29T15:27:46.989Z,16.20
2018-05-29T15:32:48.615Z,20.30
2018-05-29T15:37:51.137Z,22.07
2018-05-29T15:42:53.133Z,18.13
2018-05-29T15:47:55.815Z,16.87
2018-05-29T15:52:58.663Z,19.20
2018-05-29T15:58:01.919Z,17.57
2018-05-29T16:03:05.383Z,19.93
2018-05-29T16:08:06.905Z,18.17
2018-05-29T16:13:08.860Z,19.00
2018-05-29T16:18:10.411Z,17.87
2018-05-29T16:23:12.356Z,25.63
2018-05-29T16:28:14.832Z,18.70
2018-05-29T16:33:17.408Z,22.33
2018-05-29T16:38:19.040Z,22.00
2018-05-29T16:43:21.876Z,22.80
2018-05-29T16:48:24.105Z,14.40
2018-05-29T16:53:27.003Z,17.43
2018-05-29T16:58:28.720Z,18.10
2018-05-29T17:03:30.871Z,19.20
2018-05-29T17:08:32.737Z,22.83
2018-05-29T17:13:34.747Z,17.87
2018-05-29T17:18:36.884Z,16.90
2018-05-29T17:23:38.819Z,24.27
2018-05-29T17:28:40.745Z,22.53
2018-05-29T17:33:43.616Z,24.70
2018-05-29T17:38:45.724Z,18.37
2018-05-29T17:43:47.820Z,21.50
2018-05-29T17:48:50.081Z,23.80
2018-05-29T17:53:53.637Z,18.67
2018-05-29T17:58:55.605Z,26.23
2018-05-29T18:03:57.357Z,19.63
2018-05-29T18:08:59.229Z,27.00
2018-05-29T18:14:01.216Z,19.10
2018-05-29T18:19:04.398Z,19.30
2018-05-29T18:24:06.388Z,14.50
2018-05-29T18:29:08.176Z,17.33
2018-05-29T18:34:10.033Z,13.27
2018-05-29T18:39:12.773Z,15.93
2018-05-29T18:44:14.669Z,15.63
2018-05-29T18:49:18.564Z,12.67
2018-05-29T18:54:21.612Z,20.90
2018-05-29T18:59:25.709Z,28.17
2018-05-29T19:04:29.911Z,21.87
2018-05-29T19:09:34.068Z,19.58
2018-05-29T19:14:37.369Z,25.13
2018-05-29T19:19:40.019Z,20.33
2018-05-29T19:24:41.916Z,14.20
2018-05-29T19:29:43.886Z,13.70
2018-05-29T19:34:45.741Z,14.17
2018-05-29T19:39:48.473Z,18.37
2018-05-29T19:44:50.553Z,16.77
2018-05-29T19:49:52.436Z,12.27
2018-05-29T19:54:54.366Z,13.40
2018-05-29T19:59:56.783Z,13.53
2018-05-29T20:04:59.540Z,15.27
2018-05-29T20:10:02.303Z,15.50
2018-05-29T20:15:05.246Z,18.30
2018-05-29T20:20:07.814Z,18.53
2018-05-29T20:25:10.619Z,14.37
2018-05-29T20:30:13.673Z,12.13
2018-05-29T20:35:16.605Z,14.00
2018-05-29T20:40:20.148Z,20.50
2018-05-29T20:45:23.161Z,12.40
2018-05-29T20:50:27.394Z,19.73
2018-05-29T20:55:31.403Z,15.37
2018-05-29T21:00:35.968Z,16.33
2018-05-29T21:05:38.952Z,19.03
2018-05-29T21:10:44.728Z,17.33
2018-05-29T21:15:50.588Z,14.63
2018-05-29T21:20:53.301Z,15.93
2018-05-29T21:25:55.464Z,13.53
2018-05-29T21:30:57.479Z,16.63
2018-05-29T21:35:59.052Z,15.47
2018-05-29T21:41:01.035Z,19.17
2018-05-29T21:46:02.890Z,11.03
2018-05-29T21:51:04.536Z,15.97
2018-05-29T21:56:06.497Z,15.57
2018-05-29T22:01:08.219Z,22.17
2018-05-29T22:06:10.184Z,13.93
2018-05-29T22:11:12.518Z,14.90
2018-05-29T22:16:14.411Z,20.83
2018-05-29T22:21:16.323Z,13.00
2018-05-29T22:26:18.221Z,15.83
2018-05-29T22:31:20.376Z,14.73
2018-05-29T22:36:22.839Z,12.17
2018-05-29T22:41:24.674Z,18.70
2018-05-29T22:46:26.804Z,15.33
2018-05-29T22:51:28.393Z,14.00
2018-05-29T22:56:31.683Z,10.60
2018-05-29T23:01:33.347Z,16.00
2018-05-29T23:06:35.541Z,12.47
2018-05-29T23:11:37.632Z,16.60
2018-05-29T23:16:40.436Z,13.60
2018-05-29T23:21:42.790Z,20.97
2018-05-29T23:26:48.460Z,13.73
2018-05-29T23:31:49.988Z,16.67
2018-05-29T23:36:52.483Z,23.33
2018-05-29T23:41:54.763Z,14.73
2018-05-29T23:46:57.039Z,22.10
2018-05-29T23:51:58.561Z,21.47
2018-05-29T23:57:00.159Z,19.13
